Time;durP1;ratioP1;P1;durP2;ratioP2;P2;SDS_P1;SDS_P2;PMS_P1;PMS_P2;Temp;Humidity;BMP_temperature;BMP_pressure;BME280_temperature;BME280_humidity;BME280_pressure;Samples;Min_cycle;Max_cycle;Signal;HPM_P1;HPM_P2
2024/01/17 00:00:45;;;;;;;5.22;2.88;;;0.60;99.90;;;;;;5079251;28;20052;-58
2024/01/17 00:03:11;;;;;;;3.95;2.70;;;0.60;99.90;;;;;;5077946;28;20045;-50
2024/01/17 00:05:37;;;;;;;3.55;2.17;;;0.60;99.90;;;;;;5084096;28;20094;-57
2024/01/17 00:08:03;;;;;;;5.75;2.17;;;0.50;99.90;;;;;;5051359;28;20086;-58
2024/01/17 00:10:29;;;;;;;8.77;2.30;;;0.50;99.90;;;;;;5069794;28;20040;-49
2024/01/17 00:12:54;;;;;;;9.27;2.78;;;0.50;99.90;;;;;;5080763;28;20048;-56
2024/01/17 00:15:20;;;;;;;6.47;2.83;;;0.50;99.90;;;;;;5070088;28;20123;-46
2024/01/17 00:17:47;;;;;;;5.55;2.75;;;0.50;99.90;;;;;;5078644;28;20048;-53
2024/01/17 00:20:13;;;;;;;6.70;2.60;;;0.50;99.90;;;;;;5072870;28;20126;-50
2024/01/17 00:22:40;;;;;;;5.97;2.30;;;0.50;99.90;;;;;;5076025;28;20048;-57
2024/01/17 00:25:08;;;;;;;8.50;2.55;;;0.40;99.90;;;;;;5079381;28;20036;-57
2024/01/17 00:27:35;;;;;;;12.48;1.92;;;0.40;63.30;;;;;;5057638;28;20060;-61
2024/01/17 00:30:01;;;;;;;4.43;1.90;;;0.40;53.40;;;;;;5077838;28;20063;-53
2024/01/17 00:32:27;;;;;;;11.25;3.05;;;0.40;54.70;;;;;;5073644;28;20538;-53
2024/01/17 00:34:53;;;;;;;3.83;1.90;;;0.40;58.80;;;;;;5087745;28;20040;-57
2024/01/17 00:37:19;;;;;;;10.25;1.77;;;0.40;60.40;;;;;;5099829;27;20078;-54
2024/01/17 00:39:44;;;;;;;7.97;1.58;;;0.30;60.20;;;;;;5076372;28;20150;-55
2024/01/17 00:42:10;;;;;;;3.53;2.00;;;0.30;60.50;;;;;;5100060;28;20126;-56
2024/01/17 00:44:39;;;;;;;5.80;2.40;;;0.40;56.70;;;;;;5073128;28;20104;-49
2024/01/17 00:47:05;;;;;;;7.07;2.83;;;0.30;58.00;;;;;;5089941;28;20376;-48
2024/01/17 00:49:31;;;;;;;5.30;2.20;;;0.30;59.60;;;;;;5079705;28;20032;-53
2024/01/17 00:51:57;;;;;;;4.20;2.25;;;0.30;57.40;;;;;;5089260;28;20472;-53
2024/01/17 00:54:23;;;;;;;11.25;2.20;;;0.30;53.00;;;;;;5071725;28;20052;-51
2024/01/17 00:56:48;;;;;;;6.63;2.55;;;0.30;49.80;;;;;;5069635;28;20039;-56
2024/01/17 00:59:14;;;;;;;0.85;0.82;;;0.30;46.40;;;;;;5080621;28;20087;-52
2024/01/17 01:01:40;;;;;;;5.22;2.42;;;0.30;45.50;;;;;;5080124;28;20479;-55
2024/01/17 01:04:08;;;;;;;4.13;1.48;;;0.30;42.70;;;;;;5062842;28;20047;-59
2024/01/17 01:06:34;;;;;;;4.80;2.05;;;0.40;40.90;;;;;;5067315;28;20052;-57
2024/01/17 01:09:00;;;;;;;3.17;1.58;;;0.30;40.10;;;;;;5075463;28;20437;-58
2024/01/17 01:11:33;;;;;;;5.20;2.13;;;0.40;34.70;;;;;;5069747;28;20056;-46
2024/01/17 01:13:59;;;;;;;3.10;1.40;;;0.40;31.20;;;;;;5078447;28;20423;-54
2024/01/17 01:16:25;;;;;;;7.22;2.22;;;0.40;26.90;;;;;;5080352;28;20080;-46
2024/01/17 01:18:50;;;;;;;4.28;2.08;;;0.40;20.90;;;;;;5073054;28;20079;-53
2024/01/17 01:21:17;;;;;;;4.60;1.58;;;0.50;22.70;;;;;;5074000;28;20510;-53
2024/01/17 01:23:43;;;;;;;6.50;1.92;;;0.50;23.20;;;;;;5077504;28;20044;-49
2024/01/17 01:26:08;;;;;;;3.72;1.77;;;0.50;24.50;;;;;;5080080;28;20054;-59
2024/01/17 01:28:34;;;;;;;3.83;2.25;;;0.50;23.70;;;;;;5076940;28;20052;-58
2024/01/17 01:31:00;;;;;;;8.73;1.88;;;0.50;27.10;;;;;;5074283;28;20040;-57
2024/01/17 01:33:27;;;;;;;6.93;1.80;;;0.40;30.40;;;;;;5081427;28;20090;-52
2024/01/17 01:35:53;;;;;;;5.45;3.25;;;0.40;31.20;;;;;;5077654;28;20050;-53
2024/01/17 01:38:19;;;;;;;1.48;1.17;;;0.40;35.40;;;;;;5076061;28;20044;-53
2024/01/17 01:40:45;;;;;;;5.40;2.55;;;0.30;38.00;;;;;;5079769;28;20391;-56
2024/01/17 01:43:24;;;;;;;13.43;3.72;;;0.30;38.90;;;;;;5074753;28;20048;-51
2024/01/17 01:46:20;;;;;;;8.73;3.55;;;0.30;41.20;;;;;;5060792;28;20056;-50
2024/01/17 01:48:48;;;;;;;5.03;3.30;;;0.20;39.50;;;;;;5076796;28;20127;-47
2024/01/17 01:51:15;;;;;;;7.38;3.10;;;0.20;41.90;;;;;;5081546;28;20066;-54
2024/01/17 01:53:46;;;;;;;11.32;4.35;;;0.20;45.70;;;;;;5077276;28;20117;-56
2024/01/17 01:56:15;;;;;;;8.65;3.58;;;0.10;45.90;;;;;;5077222;28;20079;-55
2024/01/17 01:58:43;;;;;;;12.98;4.03;;;0.10;46.40;;;;;;5081189;28;20051;-53
2024/01/17 02:01:11;;;;;;;10.00;4.35;;;0.10;45.30;;;;;;5082098;28;20056;-53
2024/01/17 02:03:38;;;;;;;12.93;4.45;;;0.10;47.90;;;;;;5072650;28;20076;-55
2024/01/17 02:06:04;;;;;;;10.38;4.90;;;0.10;46.40;;;;;;5083480;28;20048;-54
2024/01/17 02:08:30;;;;;;;14.32;3.83;;;0.10;46.20;;;;;;5096788;28;20393;-57
2024/01/17 02:10:57;;;;;;;14.77;5.75;;;0.10;45.60;;;;;;5072411;28;20044;-55
2024/01/17 02:13:23;;;;;;;9.48;5.38;;;0.00;47.50;;;;;;5072879;28;20055;-53
2024/01/17 02:15:48;;;;;;;7.32;4.72;;;0.00;48.00;;;;;;5081486;28;20081;-49
2024/01/17 02:18:14;;;;;;;12.25;6.90;;;0.00;50.00;;;;;;5085087;28;20048;-59
2024/01/17 02:20:40;;;;;;;2.60;1.58;;;0.00;50.60;;;;;;5077497;28;20388;-55
2024/01/17 02:23:28;;;;;;;10.18;3.78;;;0.00;52.00;;;;;;5080887;28;20044;-51
2024/01/17 02:25:56;;;;;;;12.25;6.82;;;0.00;53.10;;;;;;5084421;28;20501;-58
2024/01/17 02:28:23;;;;;;;14.43;6.28;;;0.10;53.30;;;;;;5072819;28;20592;-52
2024/01/17 02:30:48;;;;;;;6.72;4.88;;;0.10;49.00;;;;;;5068289;28;20040;-48
2024/01/17 02:33:14;;;;;;;10.20;5.22;;;0.20;46.30;;;;;;5067213;28;20047;-49
2024/01/17 02:35:41;;;;;;;14.55;6.07;;;0.20;43.90;;;;;;5075207;28;20053;-50
2024/01/17 02:38:07;;;;;;;12.52;4.05;;;0.20;45.90;;;;;;5077413;28;20214;-52
2024/01/17 02:40:34;;;;;;;6.18;3.28;;;0.30;38.20;;;;;;5078135;28;20520;-49
2024/01/17 02:43:00;;;;;;;10.00;4.07;;;0.30;35.90;;;;;;5084631;28;20050;-53
2024/01/17 02:45:26;;;;;;;9.35;2.58;;;0.30;37.60;;;;;;5082296;28;20040;-50
2024/01/17 02:47:52;;;;;;;3.08;2.53;;;0.30;36.30;;;;;;5082970;28;20048;-52
2024/01/17 02:50:17;;;;;;;4.85;3.70;;;0.30;36.30;;;;;;5082229;28;20136;-49
2024/01/17 02:52:44;;;;;;;6.40;3.13;;;0.30;36.30;;;;;;5075881;28;20036;-54
2024/01/17 02:55:11;;;;;;;10.98;4.28;;;0.30;38.70;;;;;;5079427;28;20079;-47
2024/01/17 02:57:38;;;;;;;10.00;4.07;;;0.30;40.20;;;;;;5083488;28;20591;-60
2024/01/17 03:00:05;;;;;;;4.93;3.42;;;0.30;40.80;;;;;;5079764;28;20063;-53
2024/01/17 03:02:32;;;;;;;4.68;2.53;;;0.20;41.30;;;;;;5082427;28;20503;-56
2024/01/17 03:04:58;;;;;;;5.50;3.88;;;0.30;43.80;;;;;;5078681;28;20531;-55
2024/01/17 03:07:23;;;;;;;8.52;4.40;;;0.20;41.30;;;;;;5069817;28;20092;-54
2024/01/17 03:09:50;;;;;;;6.10;3.30;;;0.20;43.30;;;;;;5086642;28;20063;-58
2024/01/17 03:12:16;;;;;;;7.47;4.68;;;0.30;43.70;;;;;;5074103;28;20099;-54
2024/01/17 03:14:42;;;;;;;6.85;3.65;;;0.20;42.30;;;;;;5080168;28;20504;-59
2024/01/17 03:17:08;;;;;;;7.00;4.22;;;0.30;43.90;;;;;;5083866;28;20052;-54
2024/01/17 03:19:34;;;;;;;8.85;4.97;;;0.20;45.20;;;;;;5097455;27;20028;-50
2024/01/17 03:22:01;;;;;;;6.75;4.55;;;0.20;47.30;;;;;;5077359;28;20612;-49
2024/01/17 03:24:27;;;;;;;8.75;5.22;;;0.10;47.60;;;;;;5080884;28;20048;-57
2024/01/17 03:26:53;;;;;;;5.80;4.05;;;0.20;49.70;;;;;;5077237;28;20406;-51
2024/01/17 03:29:19;;;;;;;7.93;4.13;;;0.20;50.10;;;;;;5075004;28;20055;-50
2024/01/17 03:31:46;;;;;;;5.68;3.42;;;0.20;50.20;;;;;;5082836;28;20048;-55
2024/01/17 03:34:12;;;;;;;12.13;4.57;;;0.10;50.70;;;;;;5083269;28;20040;-53
2024/01/17 03:36:38;;;;;;;9.32;3.72;;;0.10;51.30;;;;;;5087923;28;20047;-59
2024/01/17 03:39:04;;;;;;;5.10;3.55;;;0.10;52.30;;;;;;5081621;28;20130;-54
2024/01/17 03:41:29;;;;;;;10.80;6.38;;;0.10;54.50;;;;;;5091898;28;20040;-48
2024/01/17 03:43:57;;;;;;;8.13;4.30;;;0.10;56.10;;;;;;5085881;28;20055;-56
2024/01/17 03:46:24;;;;;;;8.32;4.78;;;0.00;55.80;;;;;;5078943;28;20645;-53
2024/01/17 03:48:50;;;;;;;11.45;3.75;;;0.00;56.90;;;;;;5084370;28;20058;-55
2024/01/17 03:51:16;;;;;;;17.50;6.78;;;0.00;58.30;;;;;;5059614;28;20083;-53
2024/01/17 03:53:42;;;;;;;11.70;5.55;;;0.00;60.10;;;;;;5091956;28;20073;-53
2024/01/17 03:56:07;;;;;;;17.33;6.05;;;0.00;62.20;;;;;;5087822;28;20075;-48
2024/01/17 03:58:33;;;;;;;12.90;7.43;;;0.00;63.90;;;;;;5082251;28;21072;-51
2024/01/17 04:01:02;;;;;;;14.13;5.78;;;-0.10;66.10;;;;;;5082211;28;20051;-57
2024/01/17 04:03:28;;;;;;;11.82;5.90;;;-0.10;66.90;;;;;;5083331;28;20128;-49
2024/01/17 04:05:53;;;;;;;12.70;5.85;;;-0.10;69.00;;;;;;5077830;28;20755;-55
2024/01/17 04:08:19;;;;;;;8.13;3.88;;;-0.10;70.40;;;;;;5080159;28;20402;-50
2024/01/17 04:10:45;;;;;;;12.23;5.57;;;-0.10;72.10;;;;;;5075873;28;20132;-53
2024/01/17 04:13:10;;;;;;;4.45;3.10;;;-0.10;74.30;;;;;;5076678;28;20083;-58
2024/01/17 04:15:36;;;;;;;10.48;4.30;;;-0.10;74.30;;;;;;5066103;28;20545;-57
2024/01/17 04:18:02;;;;;;;6.65;4.05;;;-0.10;72.80;;;;;;5071645;28;20044;-52
2024/01/17 04:20:28;;;;;;;17.42;6.95;;;-0.10;73.20;;;;;;5074272;28;20079;-57
2024/01/17 04:22:53;;;;;;;13.10;6.28;;;-0.20;73.60;;;;;;5080738;28;20056;-53
2024/01/17 04:25:19;;;;;;;19.80;7.88;;;-0.20;74.70;;;;;;5073968;28;20122;-55
2024/01/17 04:27:45;;;;;;;17.75;8.45;;;-0.20;75.60;;;;;;5079199;28;20052;-56
2024/01/17 04:30:12;;;;;;;11.95;7.07;;;-0.30;76.10;;;;;;5075414;28;20052;-59
2024/01/17 04:32:37;;;;;;;17.63;7.07;;;-0.30;77.50;;;;;;5081095;28;20051;-46
2024/01/17 04:35:04;;;;;;;16.63;6.93;;;-0.30;78.90;;;;;;5065423;28;20040;-50
2024/01/17 04:37:30;;;;;;;16.00;7.32;;;-0.30;80.20;;;;;;5067975;28;20044;-50
2024/01/17 04:39:57;;;;;;;16.95;7.15;;;-0.40;82.40;;;;;;5086137;28;20790;-51
2024/01/17 04:42:23;;;;;;;15.07;6.13;;;-0.40;84.30;;;;;;5082551;28;20083;-49
2024/01/17 04:44:49;;;;;;;18.58;7.45;;;-0.40;85.20;;;;;;5068838;28;20132;-51
2024/01/17 04:47:15;;;;;;;15.95;7.03;;;-0.40;88.20;;;;;;5080617;28;20091;-52
2024/01/17 04:49:42;;;;;;;18.80;7.68;;;-0.40;90.00;;;;;;5070180;28;20578;-57
2024/01/17 04:52:15;;;;;;;12.05;6.80;;;-0.40;90.20;;;;;;5080400;28;20048;-47
2024/01/17 04:54:41;;;;;;;17.17;7.82;;;-0.40;91.00;;;;;;5086455;28;20525;-48
2024/01/17 04:57:07;;;;;;;9.25;4.32;;;-0.40;91.30;;;;;;5092306;28;20071;-54
2024/01/17 04:59:33;;;;;;;12.13;6.38;;;-0.40;92.40;;;;;;5065688;28;20053;-51
2024/01/17 05:01:58;;;;;;;25.27;7.72;;;-0.40;93.20;;;;;;5078705;28;20044;-56
2024/01/17 05:04:24;;;;;;;21.70;9.13;;;-0.40;93.90;;;;;;5072936;28;20078;-57
2024/01/17 05:06:50;;;;;;;22.38;9.07;;;-0.40;94.00;;;;;;5066441;28;20087;-53
2024/01/17 05:09:18;;;;;;;14.73;7.28;;;-0.40;93.90;;;;;;5072215;28;20485;-49
2024/01/17 05:11:44;;;;;;;16.85;7.93;;;-0.40;94.20;;;;;;5072005;28;20048;-54
2024/01/17 05:14:12;;;;;;;13.13;6.40;;;-0.40;94.60;;;;;;5077759;28;20036;-50
2024/01/17 05:16:38;;;;;;;20.13;7.85;;;-0.40;95.40;;;;;;5069575;28;20044;-54
2024/01/17 05:19:04;;;;;;;14.30;8.32;;;-0.40;96.10;;;;;;5078609;28;20070;-55
2024/01/17 05:21:29;;;;;;;26.98;8.98;;;-0.40;96.20;;;;;;5072529;28;20052;-49
2024/01/17 05:23:55;;;;;;;10.80;6.07;;;-0.40;96.10;;;;;;5079321;28;20118;-53
2024/01/17 05:26:21;;;;;;;11.77;7.43;;;-0.40;96.50;;;;;;5076241;28;20075;-49
2024/01/17 05:28:46;;;;;;;7.50;4.43;;;-0.40;96.50;;;;;;5080271;28;20573;-48
2024/01/17 05:31:13;;;;;;;8.98;4.65;;;-0.40;96.40;;;;;;5079887;28;20089;-55
2024/01/17 05:33:38;;;;;;;10.80;5.95;;;-0.50;96.70;;;;;;5081306;28;20128;-58
2024/01/17 05:36:04;;;;;;;18.15;6.70;;;-0.50;96.80;;;;;;5082191;28;20122;-45
2024/01/17 05:38:30;;;;;;;15.50;6.63;;;-0.40;96.10;;;;;;5080819;28;20044;-55
2024/01/17 05:40:56;;;;;;;10.23;6.05;;;-0.50;96.10;;;;;;5078348;28;20135;-57
2024/01/17 05:43:22;;;;;;;11.27;5.90;;;-0.40;96.50;;;;;;5078762;28;20140;-57
2024/01/17 05:45:48;;;;;;;7.82;3.97;;;-0.40;96.90;;;;;;5075292;28;20087;-55
2024/01/17 05:48:15;;;;;;;10.38;6.00;;;-0.50;96.80;;;;;;5066685;28;20139;-57
2024/01/17 05:50:41;;;;;;;5.97;4.30;;;-0.40;95.60;;;;;;5080797;28;20531;-52
2024/01/17 05:53:07;;;;;;;10.20;5.05;;;-0.40;95.10;;;;;;5081996;28;20044;-56
2024/01/17 05:55:33;;;;;;;10.02;5.35;;;-0.40;94.00;;;;;;5085071;28;20536;-49
2024/01/17 05:57:59;;;;;;;5.85;4.15;;;-0.40;93.30;;;;;;5071994;28;20062;-53
2024/01/17 06:00:30;;;;;;;4.88;3.72;;;-0.40;93.40;;;;;;5069212;28;20044;-59
2024/01/17 06:02:56;;;;;;;7.43;4.72;;;-0.40;93.20;;;;;;5074340;28;20079;-59
2024/01/17 06:05:22;;;;;;;5.75;2.90;;;-0.30;93.10;;;;;;5082099;28;20140;-49
2024/01/17 06:07:48;;;;;;;4.00;2.97;;;-0.40;92.00;;;;;;5078861;28;20044;-50
2024/01/17 06:10:14;;;;;;;5.32;2.97;;;-0.30;91.00;;;;;;5077879;28;20040;-50
2024/01/17 06:12:40;;;;;;;6.10;2.60;;;-0.30;90.20;;;;;;5082621;28;20069;-59
2024/01/17 06:15:17;;;;;;;16.67;6.43;;;-0.30;88.20;;;;;;5091516;28;20133;-60
2024/01/17 06:17:43;;;;;;;9.35;5.07;;;-0.30;88.40;;;;;;5094064;28;20131;-54
2024/01/17 06:20:11;;;;;;;7.15;3.25;;;-0.30;87.30;;;;;;5081963;28;20158;-49
2024/01/17 06:22:37;;;;;;;10.52;4.95;;;-0.30;87.50;;;;;;5081289;28;20040;-55
2024/01/17 06:25:07;;;;;;;10.90;5.22;;;-0.30;86.40;;;;;;5085756;28;20047;-56
2024/01/17 06:27:33;;;;;;;9.00;5.23;;;-0.40;86.00;;;;;;5090209;28;20293;-48
2024/01/17 06:29:58;;;;;;;7.78;3.72;;;-0.40;85.30;;;;;;5086362;28;20047;-53
2024/01/17 06:32:24;;;;;;;9.60;4.43;;;-0.50;87.60;;;;;;5083995;28;20048;-51
2024/01/17 06:34:51;;;;;;;16.85;4.88;;;-0.40;87.50;;;;;;5085501;28;20036;-52
2024/01/17 06:37:16;;;;;;;17.60;5.22;;;-0.50;88.50;;;;;;5087849;28;20059;-58
2024/01/17 06:39:43;;;;;;;9.07;4.68;;;-0.50;89.00;;;;;;5076785;28;20048;-52
2024/01/17 06:42:11;;;;;;;8.32;5.40;;;-0.60;89.60;;;;;;5099850;28;20455;-56
2024/01/17 06:44:37;;;;;;;16.75;5.25;;;-0.60;90.80;;;;;;5083306;28;20051;-58
2024/01/17 06:47:03;;;;;;;15.82;4.82;;;-0.60;91.70;;;;;;5091880;28;20043;-50
2024/01/17 06:49:29;;;;;;;4.63;3.58;;;-0.70;93.30;;;;;;5090169;28;20135;-57
2024/01/17 06:51:56;;;;;;;10.70;5.53;;;-0.70;94.40;;;;;;5097551;28;20866;-54
2024/01/17 06:54:22;;;;;;;15.48;4.57;;;-0.80;95.20;;;;;;5083732;28;20090;-55
2024/01/17 06:56:48;;;;;;;13.27;5.88;;;-0.80;95.60;;;;;;5078912;28;20424;-52
2024/01/17 06:59:14;;;;;;;12.27;4.95;;;-0.80;97.10;;;;;;5084212;28;20086;-56
2024/01/17 07:01:40;;;;;;;11.90;5.63;;;-0.80;97.00;;;;;;5082782;28;20044;-48
2024/01/17 07:04:06;;;;;;;12.20;5.55;;;-0.80;97.20;;;;;;5091459;27;20048;-54
2024/01/17 07:06:32;;;;;;;19.48;5.53;;;-0.80;97.30;;;;;;5078077;28;20048;-53
2024/01/17 07:08:59;;;;;;;7.57;3.85;;;-0.80;97.20;;;;;;5092761;28;20562;-49
2024/01/17 07:11:25;;;;;;;4.68;3.05;;;-0.80;96.90;;;;;;5075347;28;20111;-51
2024/01/17 07:13:50;;;;;;;6.45;3.10;;;-0.80;96.40;;;;;;5077324;28;20048;-53
2024/01/17 07:16:16;;;;;;;7.85;3.03;;;-0.80;96.20;;;;;;5079601;28;20048;-51
2024/01/17 07:18:42;;;;;;;12.68;5.43;;;-0.80;95.30;;;;;;5074549;28;20046;-49
2024/01/17 07:21:08;;;;;;;6.32;4.25;;;-0.70;94.40;;;;;;5078518;28;20048;-53
2024/01/17 07:23:34;;;;;;;7.03;3.28;;;-0.70;92.70;;;;;;5072674;28;20036;-49
2024/01/17 07:26:01;;;;;;;13.88;4.93;;;-0.70;91.90;;;;;;5079224;28;20523;-56
2024/01/17 07:28:27;;;;;;;10.55;4.40;;;-0.70;90.50;;;;;;5075428;28;20060;-48
2024/01/17 07:30:53;;;;;;;9.63;4.93;;;-0.70;90.20;;;;;;5070834;28;20036;-50
2024/01/17 07:33:18;;;;;;;4.53;3.83;;;-0.70;88.80;;;;;;5067840;28;20036;-58
2024/01/17 07:35:44;;;;;;;12.85;4.45;;;-0.80;89.50;;;;;;5071445;28;20041;-53
2024/01/17 07:38:10;;;;;;;13.70;4.30;;;-0.80;89.40;;;;;;5090234;28;20041;-47
2024/01/17 07:40:37;;;;;;;10.70;4.45;;;-0.80;90.40;;;;;;5080952;28;20444;-56
2024/01/17 07:43:03;;;;;;;8.63;4.13;;;-0.90;90.40;;;;;;5059250;28;20404;-55
2024/01/17 07:45:29;;;;;;;10.35;4.88;;;-1.00;91.40;;;;;;5081275;28;20036;-54
2024/01/17 07:47:55;;;;;;;11.68;4.43;;;-0.90;92.60;;;;;;5066842;28;20053;-58
2024/01/17 07:50:20;;;;;;;10.70;4.13;;;-1.00;93.70;;;;;;5076811;28;20122;-55
2024/01/17 07:52:46;;;;;;;15.55;6.13;;;-1.00;94.30;;;;;;5066162;28;20074;-49
2024/01/17 07:55:12;;;;;;;8.85;5.43;;;-1.10;95.30;;;;;;5084651;28;20528;-55
2024/01/17 07:57:38;;;;;;;9.45;4.53;;;-1.10;96.30;;;;;;5085192;28;20193;-55
2024/01/17 08:00:04;;;;;;;14.07;5.57;;;-1.10;97.00;;;;;;5083602;28;20063;-55
2024/01/17 08:02:31;;;;;;;6.45;3.47;;;-1.10;97.50;;;;;;5074286;28;20166;-49
2024/01/17 08:04:57;;;;;;;12.57;5.55;;;-1.10;98.40;;;;;;5070268;28;20048;-56
2024/01/17 08:07:24;;;;;;;15.32;5.10;;;-1.10;98.10;;;;;;5073579;28;20057;-61
2024/01/17 08:09:53;;;;;;;16.35;5.43;;;-1.10;97.70;;;;;;5075073;28;20067;-46
2024/01/17 08:12:19;;;;;;;12.18;5.28;;;-1.10;97.30;;;;;;5085719;28;20048;-53
2024/01/17 08:14:46;;;;;;;11.07;4.80;;;-1.10;96.80;;;;;;5065929;28;20476;-57
2024/01/17 08:17:11;;;;;;;17.85;5.32;;;-1.10;96.10;;;;;;5090927;28;20051;-54
2024/01/17 08:19:37;;;;;;;7.95;3.50;;;-1.10;95.90;;;;;;5082401;28;20039;-54
2024/01/17 08:22:04;;;;;;;11.57;4.32;;;-1.10;96.10;;;;;;5092040;28;20392;-55
2024/01/17 08:24:30;;;;;;;10.40;4.88;;;-1.00;96.20;;;;;;5082925;28;20074;-59
2024/01/17 08:26:56;;;;;;;17.75;5.80;;;-1.00;95.90;;;;;;5083657;28;20506;-47
2024/01/17 08:33:05;;;;;;;7.97;4.93;;;-1.00;95.60;;;;;;5030683;22;20458;-59
2024/01/17 08:35:31;;;;;;;11.10;5.97;;;-1.00;95.50;;;;;;5062434;22;20094;-55
2024/01/17 08:37:57;;;;;;;10.73;5.00;;;-1.00;95.90;;;;;;5069230;28;20502;-54
2024/01/17 08:40:22;;;;;;;5.90;4.38;;;-1.00;96.20;;;;;;5072421;28;20047;-57
2024/01/17 08:42:48;;;;;;;12.52;7.10;;;-1.00;95.40;;;;;;5072092;28;20039;-54
2024/01/17 08:45:15;;;;;;;20.52;6.30;;;-1.00;95.10;;;;;;5072925;28;20518;-58
2024/01/17 08:47:43;;;;;;;9.07;5.80;;;-1.10;95.60;;;;;;5073160;28;20607;-56
2024/01/17 08:50:13;;;;;;;7.78;4.30;;;-1.00;95.90;;;;;;5070880;28;20465;-52
2024/01/17 08:52:40;;;;;;;12.70;5.50;;;-1.10;95.50;;;;;;5073827;28;20081;-59
2024/01/17 08:55:08;;;;;;;7.00;4.57;;;-1.00;95.70;;;;;;5072774;28;20061;-51
2024/01/17 08:57:39;;;;;;;15.25;6.53;;;-1.10;95.80;;;;;;5073245;28;20048;-60
2024/01/17 09:00:06;;;;;;;13.65;4.63;;;-1.10;95.90;;;;;;5072256;28;20117;-58
2024/01/17 09:02:32;;;;;;;17.30;6.30;;;-1.10;96.60;;;;;;5067228;28;20084;-59
2024/01/17 09:04:58;;;;;;;12.65;5.93;;;-1.20;97.40;;;;;;5076821;28;20044;-58
2024/01/17 09:07:25;;;;;;;13.10;6.00;;;-1.00;97.50;;;;;;5076861;28;20059;-59
2024/01/17 09:09:50;;;;;;;19.17;6.60;;;-1.00;97.80;;;;;;5076091;28;20757;-55
2024/01/17 09:12:17;;;;;;;10.68;5.13;;;-1.00;96.90;;;;;;5072141;28;20056;-58
2024/01/17 09:14:46;;;;;;;13.93;6.38;;;-1.00;97.10;;;;;;5076052;28;20044;-60
2024/01/17 09:17:11;;;;;;;17.23;6.72;;;-0.90;96.70;;;;;;5076049;28;20406;-50
2024/01/17 09:19:37;;;;;;;12.25;4.18;;;-0.90;95.60;;;;;;5076075;28;20044;-58
2024/01/17 09:22:04;;;;;;;15.18;5.63;;;-0.90;93.50;;;;;;5062569;28;20048;-57
2024/01/17 09:24:30;;;;;;;12.82;6.32;;;-0.90;92.60;;;;;;5057951;28;20533;-48
2024/01/17 09:26:56;;;;;;;11.13;6.10;;;-0.90;90.80;;;;;;5058602;28;20344;-52
2024/01/17 09:29:21;;;;;;;14.43;7.22;;;-0.90;89.50;;;;;;5067635;28;20552;-55
2024/01/17 09:31:47;;;;;;;8.63;3.65;;;-0.90;88.50;;;;;;5077274;28;20375;-56
2024/01/17 09:34:13;;;;;;;9.68;5.05;;;-0.90;87.30;;;;;;5076567;28;20460;-58
2024/01/17 09:36:39;;;;;;;16.42;5.57;;;-0.90;85.10;;;;;;5074750;28;20127;-56
2024/01/17 09:39:05;;;;;;;7.43;3.92;;;-0.80;83.40;;;;;;5076937;28;20342;-61
2024/01/17 09:41:31;;;;;;;14.27;6.50;;;-0.80;84.70;;;;;;5074948;28;20143;-59
2024/01/17 09:43:57;;;;;;;15.00;6.50;;;-0.80;84.30;;;;;;5075430;28;20048;-57
2024/01/17 09:46:23;;;;;;;6.40;4.30;;;-0.70;83.00;;;;;;5057825;28;20147;-53
2024/01/17 09:48:49;;;;;;;11.27;5.72;;;-0.70;82.50;;;;;;5075258;28;20044;-57
2024/01/17 09:51:17;;;;;;;8.25;4.78;;;-0.60;83.00;;;;;;5076457;28;20036;-55
2024/01/17 09:53:46;;;;;;;15.25;5.70;;;-0.60;84.30;;;;;;5076415;28;20135;-59
2024/01/17 09:56:12;;;;;;;13.73;5.57;;;-0.60;83.90;;;;;;5076464;28;20582;-55
2024/01/17 09:58:43;;;;;;;13.25;3.75;;;-0.50;83.30;;;;;;5075458;28;20884;-60
2024/01/17 10:01:10;;;;;;;13.88;5.93;;;-0.50;81.40;;;;;;5063730;28;20499;-59
2024/01/17 10:03:38;;;;;;;8.52;4.18;;;-0.50;81.10;;;;;;5050723;28;20113;-61
2024/01/17 10:06:06;;;;;;;23.00;5.70;;;-0.50;82.10;;;;;;5069457;28;20084;-51
2024/01/17 10:08:33;;;;;;;16.23;7.00;;;-0.40;81.70;;;;;;5057204;28;20077;-61
2024/01/17 10:10:59;;;;;;;8.65;4.63;;;-0.50;81.50;;;;;;5068162;28;20051;-55
2024/01/17 10:13:24;;;;;;;12.50;6.32;;;-0.40;81.90;;;;;;5062212;28;20040;-61
2024/01/17 10:15:50;;;;;;;10.93;4.68;;;-0.40;82.40;;;;;;5061577;28;20048;-54
2024/01/17 10:18:16;;;;;;;13.10;6.25;;;-0.40;82.90;;;;;;5059658;28;20572;-53
2024/01/17 10:20:43;;;;;;;23.80;6.00;;;-0.40;83.00;;;;;;5054467;28;20499;-58
2024/01/17 10:23:09;;;;;;;14.07;5.90;;;-0.40;81.40;;;;;;5062232;28;20032;-59
2024/01/17 10:25:53;;;;;;;11.48;5.53;;;-0.30;80.80;;;;;;5073311;28;20498;-60
2024/01/17 10:28:18;;;;;;;4.10;2.70;;;-0.30;80.40;;;;;;5066920;28;20052;-61
2024/01/17 10:30:44;;;;;;;7.50;3.33;;;-0.30;80.90;;;;;;5065700;28;20041;-54
2024/01/17 10:33:10;;;;;;;11.25;5.60;;;-0.30;78.80;;;;;;5054340;28;20533;-60
2024/01/17 10:35:37;;;;;;;10.98;5.35;;;-0.20;78.60;;;;;;5075681;28;20060;-61
2024/01/17 10:38:06;;;;;;;14.52;5.40;;;-0.20;76.30;;;;;;5072201;28;20047;-51
2024/01/17 10:40:32;;;;;;;13.15;5.15;;;-0.20;74.50;;;;;;5071223;28;20048;-61
2024/01/17 10:43:12;;;;;;;8.70;5.18;;;-0.10;73.00;;;;;;5072799;28;20036;-59
2024/01/17 10:45:42;;;;;;;9.73;4.35;;;-0.10;71.90;;;;;;5071631;28;20047;-59
2024/01/17 10:48:08;;;;;;;12.05;5.75;;;-0.10;70.30;;;;;;5063839;28;20493;-55
2024/01/17 10:50:34;;;;;;;11.20;4.05;;;0.00;69.40;;;;;;5070023;28;20032;-58
2024/01/17 10:53:05;;;;;;;10.05;5.35;;;0.10;66.90;;;;;;5075127;28;20047;-57
2024/01/17 10:55:36;;;;;;;7.90;3.00;;;0.10;63.90;;;;;;5065237;28;20052;-59
2024/01/17 10:58:10;;;;;;;6.00;1.98;;;0.10;60.00;;;;;;5065993;28;20084;-58
2024/01/17 11:00:40;;;;;;;9.65;4.95;;;0.00;58.20;;;;;;5063878;28;20461;-60
2024/01/17 11:03:09;;;;;;;14.32;4.47;;;0.10;63.00;;;;;;5064953;28;20044;-56
2024/01/17 11:05:45;;;;;;;8.60;4.53;;;0.10;61.60;;;;;;5069593;28;20176;-54
2024/01/17 11:08:12;;;;;;;5.15;3.60;;;0.20;63.10;;;;;;5069055;28;20040;-52
2024/01/17 11:10:40;;;;;;;16.40;5.18;;;0.30;64.80;;;;;;5076955;28;20044;-50
2024/01/17 11:13:09;;;;;;;11.90;5.70;;;0.30;64.30;;;;;;5069059;28;20402;-52
2024/01/17 11:15:38;;;;;;;11.73;4.40;;;0.30;63.10;;;;;;5076547;28;20755;-49
2024/01/17 11:18:06;;;;;;;10.23;5.13;;;0.30;62.90;;;;;;5072406;28;20052;-50
2024/01/17 11:20:32;;;;;;;8.85;4.60;;;0.30;61.80;;;;;;5069753;28;20049;-49
2024/01/17 11:23:01;;;;;;;8.00;3.55;;;0.30;61.50;;;;;;5069362;28;20207;-54
2024/01/17 11:25:55;;;;;;;10.82;6.25;;;0.30;60.50;;;;;;5065240;28;20041;-56
2024/01/17 11:28:28;;;;;;;9.52;5.65;;;0.30;59.00;;;;;;5038727;28;20044;-59
2024/01/17 11:31:31;;;;;;;6.93;2.90;;;0.40;61.80;;;;;;5073495;28;20040;-60
2024/01/17 11:33:58;;;;;;;8.40;4.80;;;0.30;63.80;;;;;;5072277;28;20055;-58
2024/01/17 11:36:41;;;;;;;8.20;4.95;;;0.30;64.10;;;;;;5074302;28;20136;-58
2024/01/17 11:39:11;;;;;;;8.38;5.45;;;0.30;63.90;;;;;;5078981;28;20089;-53
2024/01/17 11:41:38;;;;;;;16.85;5.05;;;0.20;61.90;;;;;;5077017;28;20040;-51
2024/01/17 11:44:09;;;;;;;7.88;4.65;;;0.20;62.20;;;;;;5067124;28;20051;-49
2024/01/17 11:46:36;;;;;;;8.30;4.53;;;0.20;62.20;;;;;;5077403;28;20086;-57
2024/01/17 11:49:04;;;;;;;6.25;3.42;;;0.20;60.30;;;;;;5072916;28;20127;-54
2024/01/17 11:51:33;;;;;;;12.05;5.30;;;0.20;61.30;;;;;;5073998;28;20040;-53
2024/01/17 11:54:00;;;;;;;10.15;5.53;;;0.10;65.00;;;;;;5072727;28;20551;-55
2024/01/17 11:56:26;;;;;;;13.85;5.60;;;0.10;70.60;;;;;;5079980;28;20491;-53
2024/01/17 11:58:57;;;;;;;19.48;4.70;;;0.10;75.50;;;;;;5080180;28;20512;-52
2024/01/17 12:01:37;;;;;;;8.35;5.25;;;0.10;80.50;;;;;;5079515;28;20051;-59
2024/01/17 12:04:13;;;;;;;13.45;6.07;;;0.10;83.20;;;;;;5077263;28;20130;-56
2024/01/17 12:06:49;;;;;;;9.85;5.25;;;0.00;85.00;;;;;;5059497;28;20055;-52
2024/01/17 12:09:19;;;;;;;11.77;5.90;;;0.00;88.30;;;;;;5080947;28;20059;-57
2024/01/17 12:11:46;;;;;;;13.02;5.35;;;0.00;90.20;;;;;;5075944;28;20494;-55
2024/01/17 12:14:13;;;;;;;12.90;5.85;;;0.00;90.70;;;;;;5081044;28;20069;-50
2024/01/17 12:16:39;;;;;;;7.57;5.47;;;0.00;91.00;;;;;;5078388;28;20044;-51
2024/01/17 12:19:05;;;;;;;16.63;5.70;;;0.00;91.60;;;;;;5079571;28;20055;-52
2024/01/17 12:21:30;;;;;;;12.98;4.70;;;0.00;91.30;;;;;;5078364;28;20486;-56
2024/01/17 12:23:56;;;;;;;10.70;4.72;;;0.00;91.70;;;;;;5081301;28;20518;-54
2024/01/17 12:26:22;;;;;;;12.00;5.45;;;0.10;92.30;;;;;;5062833;28;20159;-52
2024/01/17 12:28:48;;;;;;;17.67;6.00;;;0.10;91.60;;;;;;5080545;28;20436;-47
2024/01/17 12:31:16;;;;;;;10.15;4.25;;;0.10;91.70;;;;;;5077916;28;20053;-52
2024/01/17 12:33:42;;;;;;;13.23;5.65;;;0.10;92.70;;;;;;5074470;28;20052;-57
2024/01/17 12:36:08;;;;;;;11.38;6.00;;;0.20;93.30;;;;;;5078215;28;20441;-58
2024/01/17 12:38:36;;;;;;;14.10;5.80;;;0.20;93.80;;;;;;5079845;28;20623;-57
2024/01/17 12:41:04;;;;;;;12.75;5.65;;;0.30;94.70;;;;;;5074646;28;20761;-58
2024/01/17 12:43:35;;;;;;;10.18;5.10;;;0.30;95.30;;;;;;5073570;28;20092;-54
2024/01/17 12:46:02;;;;;;;17.08;5.57;;;0.30;95.10;;;;;;5076306;28;20067;-55
2024/01/17 12:48:34;;;;;;;14.73;5.82;;;0.30;94.20;;;;;;5077816;28;20115;-55